地図

経路データ

SID SEASON NUMBER BASIN SUBBASIN NAME ISO_TIME NATURE LAT LON WMO_WIND WMO_PRES WMO_AGENCY TRACK_TYPE DIST2LAND LANDFALL IFLAG USA_AGENCY USA_ATCF_ID USA_LAT USA_LON USA_RECORD USA_STATUS USA_WIND USA_PRES USA_SSHS USA_R34_NE USA_R34_SE USA_R34_SW USA_R34_NW USA_R50_NE USA_R50_SE USA_R50_SW USA_R50_NW USA_R64_NE USA_R64_SE USA_R64_SW USA_R64_NW USA_POCI USA_ROCI USA_RMW USA_EYE TOKYO_LAT TOKYO_LON TOKYO_GRADE TOKYO_WIND TOKYO_PRES TOKYO_R50_DIR TOKYO_R50_LONG TOKYO_R50_SHORT TOKYO_R30_DIR TOKYO_R30_LONG TOKYO_R30_SHORT TOKYO_LAND CMA_LAT CMA_LON CMA_CAT CMA_WIND CMA_PRES HKO_LAT HKO_LON HKO_CAT HKO_WIND HKO_PRES NEWDELHI_LAT NEWDELHI_LON NEWDELHI_GRADE NEWDELHI_WIND NEWDELHI_PRES NEWDELHI_CI NEWDELHI_DP NEWDELHI_POCI REUNION_LAT REUNION_LON REUNION_TYPE REUNION_WIND REUNION_PRES REUNION_TNUM REUNION_CI REUNION_RMW REUNION_R34_NE REUNION_R34_SE REUNION_R34_SW REUNION_R34_NW REUNION_R50_NE REUNION_R50_SE REUNION_R50_SW REUNION_R50_NW REUNION_R64_NE REUNION_R64_SE REUNION_R64_SW REUNION_R64_NW BOM_LAT BOM_LON BOM_TYPE BOM_WIND BOM_PRES BOM_TNUM BOM_CI BOM_RMW BOM_R34_NE BOM_R34_SE BOM_R34_SW BOM_R34_NW BOM_R50_NE BOM_R50_SE BOM_R50_SW BOM_R50_NW BOM_R64_NE BOM_R64_SE BOM_R64_SW BOM_R64_NW BOM_ROCI BOM_POCI BOM_EYE BOM_POS_METHOD BOM_PRES_METHOD NADI_LAT NADI_LON NADI_CAT NADI_WIND NADI_PRES WELLINGTON_LAT WELLINGTON_LON WELLINGTON_WIND WELLINGTON_PRES DS824_LAT DS824_LON DS824_STAGE DS824_WIND DS824_PRES TD9636_LAT TD9636_LON TD9636_STAGE TD9636_WIND TD9636_PRES TD9635_LAT TD9635_LON TD9635_WIND TD9635_PRES TD9635_ROCI NEUMANN_LAT NEUMANN_LON NEUMANN_CLASS NEUMANN_WIND NEUMANN_PRES MLC_LAT MLC_LON MLC_CLASS MLC_WIND MLC_PRES USA_GUST BOM_GUST BOM_GUST_PER REUNION_GUST REUNION_GUST_PER USA_SEAHGT USA_SEARAD_NE USA_SEARAD_SE USA_SEARAD_SW USA_SEARAD_NW STORM_SPEED STORM_DIR
1934352S13053 1935 87 SI MM NOT_NAMED 1934-12-18 06:00:00 NR -12.9000 53.3000 reunion main 360 344 _____O________ -1 -12.9000 53.3000 99 9.90000 5 204
1934352S13053 1935 87 SI MM NOT_NAMED 1934-12-18 09:00:00 NR -13.1407 53.1932 main 344 327 _____P________ -1 -13.1407 53.1932 99 5 204
1934352S13053 1935 87 SI MM NOT_NAMED 1934-12-18 12:00:00 NR -13.3798 53.0869 main 327 314 _____P________ -1 -13.3798 53.0869 99 5 203
1934352S13053 1935 87 SI MM NOT_NAMED 1934-12-18 15:00:00 NR -13.6160 52.9818 main 314 313 _____P________ -1 -13.6160 52.9818 99 3 191
1934352S13053 1935 87 SI MM NOT_NAMED 1934-12-18 18:00:00 NR -13.6781 53.0229 main 313 311 _____P____O___ -1 -13.8477 52.8786 99 -13.0000 53.6000 2 2 167
1934352S13053 1935 87 SI MM NOT_NAMED 1934-12-18 21:00:00 NR -13.8046 53.0177 main 311 300 _____P____P___ -1 -14.0734 52.7781 99 -13.2671 53.4970 2 3 182
1934352S13053 1935 87 SI MM NOT_NAMED 1934-12-19 00:00:00 TS -13.9686 52.9974 main 300 286 _____P___OP___ -1 -14.2917 52.6810 99 -14.0000 53.1000 TC 35 -13.5274 53.3851 2 3 197
1934352S13053 1935 87 SI MM NOT_NAMED 1934-12-19 03:00:00 TS -14.1375 52.9165 main 286 267 _____P___PP___ -1 -14.5010 52.5881 99 -14.1375 52.8950 TC 35 -13.7740 53.2556 2 4 210
1934352S13053 1935 87 SI MM NOT_NAMED 1934-12-19 06:00:00 TS -14.3364 52.7727 reunion main 267 239 _____O___OO___ -1 -14.7000 52.5000 99 9.90000 -14.3000 52.7000 TC 35 -14.0000 53.1000 2 5 216
1934352S13053 1935 87 SI MM NOT_NAMED 1934-12-19 09:00:00 TS -14.5296 52.6199 main 239 222 _____P___PP___ -1 -14.8882 52.4172 99 -14.5000 52.5275 TC 35 -14.2007 52.9151 2 5 216
1934352S13053 1935 87 SI MM NOT_NAMED 1934-12-19 12:00:00 TS -14.7166 52.4864 main 222 206 _____P___OP___ -1 -15.0696 52.3390 99 -14.7000 52.4000 TC 35 -14.3801 52.7201 2 4 213
1934352S13053 1935 87 SI MM NOT_NAMED 1934-12-19 15:00:00 TS -14.8838 52.3772 main 206 194 _____P___PP___ -1 -15.2494 52.2641 99 -14.8575 52.3275 TC 35 -14.5445 52.5401 2 4 209
1934352S13053 1935 87 SI MM NOT_NAMED 1934-12-19 18:00:00 TS -15.0441 52.2972 main 194 193 _____P___OO___ -1 -15.4324 52.1915 99 -15.0000 52.3000 TC 35 -14.7000 52.4000 2 3 200
1934352S13053 1935 87 SI MM NOT_NAMED 1934-12-19 21:00:00 TS -15.2038 52.2557 main 193 182 _____P___PP___ -1 -15.6240 52.1199 99 -15.1425 52.3074 TC 35 -14.8449 52.3398 2 3 191
1934352S13053 1935 87 SI MM NOT_NAMED 1934-12-20 00:00:00 TS -15.3713 52.2227 main 182 182 _____P___OP___ -1 -15.8290 52.0483 99 -15.3000 52.3000 TC 35 -14.9849 52.3197 2 4 195
1934352S13053 1935 87 SI MM NOT_NAMED 1934-12-20 03:00:00 TS -15.5567 52.1659 main 183 172 _____P___PP___ -1 -16.0527 51.9754 99 -15.4850 52.2075 TC 35 -15.1324 52.3148 2 4 197
1934352S13053 1935 87 SI MM NOT_NAMED 1934-12-20 06:00:00 TS -15.7667 52.1000 reunion main 177 170 _____O___OO___ -1 -16.3000 51.9000 99 9.90000 -15.7000 52.1000 TC 35 -15.3000 52.3000 2 5 196
1934352S13053 1935 87 SI MM NOT_NAMED 1934-12-20 09:00:00 TS -16.0243 52.0274 main 174 174 _____P___PP___ -1 -16.5998 51.8042 99 -15.9575 52.0425 TC 35 -15.5156 52.2354 2 5 195
1934352S13053 1935 87 SI MM NOT_NAMED 1934-12-20 12:00:00 TS -16.2915 51.9541 main 188 178 _____P___OP___ -1 -16.9245 51.7047 99 -16.2000 52.0000 TC 35 -15.7500 52.1576 2 5 195
1934352S13053 1935 87 SI MM NOT_NAMED 1934-12-20 15:00:00 TS -16.5388 51.8768 main 188 183 _____P___PP___ -1 -17.2670 51.6044 99 -16.3650 51.9500 TC 35 -15.9844 52.0760 2 5 197
1934352S13053 1935 87 SI MM NOT_NAMED 1934-12-20 18:00:00 TS -16.7734 51.8021 main 192 192 _____P___OO___ -1 -17.6202 51.5064 99 -16.5000 51.9000 TC 35 -16.2000 52.0000 2 5 196
1934352S13053 1935 87 SI MM NOT_NAMED 1934-12-20 21:00:00 TS -16.9878 51.7445 main 195 195 _____P___PP___ -1 -17.9772 51.4138 99 -16.6350 51.8649 TC 35 -16.3512 51.9548 2 4 195
1934352S13053 1935 87 SI MM NOT_NAMED 1934-12-21 00:00:00 TS -17.2052 51.6815 main 206 199 _____P___OP___ -1 -18.3308 51.3298 99 -16.8000 51.8000 TC 35 -16.4849 51.9147 2 5 197
1934352S13053 1935 87 SI MM NOT_NAMED 1934-12-21 03:00:00 TS -17.4426 51.5941 main 202 201 _____P___PP___ -1 -18.6741 51.2574 99 -17.0275 51.6576 TC 35 -16.6262 51.8672 2 5 199
1934352S13053 1935 87 SI MM NOT_NAMED 1934-12-21 06:00:00 TS -17.7000 51.5000 reunion main 206 202 _____O___OO___ -1 -19.0000 51.2000 99 9.90000 -17.3000 51.5000 TC 35 -16.8000 51.8000 2 6 198
1934352S13053 1935 87 SI MM NOT_NAMED 1934-12-21 09:00:00 TS -17.9804 51.4064 main 203 198 _____P___PP___ -1 -19.2824 51.1651 99 -17.6075 51.3775 TC 35 -17.0513 51.6766 2 6 196
1934352S13053 1935 87 SI MM NOT_NAMED 1934-12-21 12:00:00 TS -18.2617 51.3268 main 200 200 _____P___OP___ -1 -19.5501 51.1448 99 -17.9000 51.3000 TC 35 -17.3351 51.5355 2 6 193
1934352S13053 1935 87 SI MM NOT_NAMED 1934-12-21 15:00:00 TS -18.5157 51.2745 main 203 197 _____P___PP___ -1 -19.8058 51.1369 99 -18.1150 51.2849 TC 35 -17.6263 51.4016 2 5 189
1934352S13053 1935 87 SI MM NOT_NAMED 1934-12-21 18:00:00 TS -18.7508 51.2463 main 201 201 _____P___OO___ -1 -20.0523 51.1390 99 -18.3000 51.3000 TC 35 -17.9000 51.3000 2 5 184
1934352S13053 1935 87 SI MM NOT_NAMED 1934-12-21 21:00:00 TS -18.9726 51.2375 main 209 209 _____P___PP___ -1 -20.2922 51.1488 99 -18.5000 51.3000 TC 35 -18.1256 51.2638 2 4 0
1934352S13053 1935 87 SI MM NOT_NAMED 1934-12-22 00:00:00 TS -19.1861 51.2420 main 217 217 _____P___OP___ -1 -20.5283 51.1638 99 -18.7000 51.3000 TC 35 -18.3299 51.2622 2 4 178
1934352S13053 1935 87 SI MM NOT_NAMED 1934-12-22 03:00:00 TS -19.3967 51.2537 main 234 234 _____P___PP___ -1 -20.7633 51.1817 99 -18.9075 51.3000 TC 35 -18.5193 51.2795 2 4 0
1934352S13053 1935 87 SI MM NOT_NAMED 1934-12-22 06:00:00 TS -19.6000 51.2667 reunion main 240 240 _____O___OO___ -1 -21.0000 51.2000 99 9.90000 -19.1000 51.3000 TC 35 -18.7000 51.3000 2 4 177
1934352S13053 1935 87 SI MM NOT_NAMED 1934-12-22 09:00:00 TS -19.7958 51.2680 main 247 247 _____P___PP___ -1 -21.2519 51.2041 99 -19.2575 51.3000 TC 35 -18.8781 51.3000 2 4 176
1934352S13053 1935 87 SI MM NOT_NAMED 1934-12-22 12:00:00 TS -19.9847 51.2699 main 256 256 _____P___OP___ -1 -21.5040 51.2098 99 -19.4000 51.3000 TC 35 -19.0500 51.3000 2 4 178
1934352S13053 1935 87 SI MM NOT_NAMED 1934-12-22 15:00:00 TS -20.1710 51.2725 main 261 261 _____P___PP___ -1 -21.7560 51.2176 99 -19.5350 51.3000 TC 35 -19.2219 51.3000 2 4 0
1934352S13053 1935 87 SI MM NOT_NAMED 1934-12-22 18:00:00 TS -20.3692 51.2759 main 264 264 _____P___OO___ -1 -22.0075 51.2277 99 -19.7000 51.3000 TC 35 -19.4000 51.3000 2 4 0
1934352S13053 1935 87 SI MM NOT_NAMED 1934-12-22 21:00:00 TS -20.5978 51.2802 main 269 269 _____P___PP___ -1 -22.2580 51.2407 99 -19.9425 51.3000 TC 35 -19.5928 51.3000 2 5 177
1934352S13053 1935 87 SI MM NOT_NAMED 1934-12-23 00:00:00 TS -20.8332 51.2856 main 275 275 _____P___OP___ -1 -22.5072 51.2568 99 -20.2000 51.3000 TC 35 -19.7925 51.3000 2 5 0
1934352S13053 1935 87 SI MM NOT_NAMED 1934-12-23 03:00:00 TS -21.0527 51.2921 main 287 287 _____P___PP___ -1 -22.7546 51.2764 99 -20.4075 51.3000 TC 35 -19.9959 51.3000 2 4 0
1934352S13053 1935 87 SI MM NOT_NAMED 1934-12-23 06:00:00 TS -21.2667 51.3000 reunion main 296 296 _____O___OO___ -1 -23.0000 51.3000 99 9.90000 -20.6000 51.3000 TC 35 -20.2000 51.3000 2 4 177
1934352S13053 1935 87 SI MM NOT_NAMED 1934-12-23 09:00:00 TS -21.4781 51.3080 main 305 305 _____P___PP___ -1 -23.2498 51.3281 99 -20.7925 51.3000 TC 35 -20.3919 51.2960 2 4 178
1934352S13053 1935 87 SI MM NOT_NAMED 1934-12-23 12:00:00 TS -21.6945 51.3177 main 310 310 _____P___OP___ -1 -23.4984 51.3605 99 -21.0000 51.3000 TC 35 -20.5850 51.2926 2 4 0
1934352S13053 1935 87 SI MM NOT_NAMED 1934-12-23 15:00:00 TS -21.9243 51.3272 main 314 314 _____P___PP___ -1 -23.7447 51.3963 99 -21.2425 51.2925 TC 35 -20.7856 51.2929 2 5 179
1934352S13053 1935 87 SI MM NOT_NAMED 1934-12-23 18:00:00 TS -22.1625 51.3449 main 322 322 _____P___OO___ -1 -23.9875 51.4348 99 -21.5000 51.3000 TC 35 -21.0000 51.3000 2 5 173
1934352S13053 1935 87 SI MM NOT_NAMED 1934-12-23 21:00:00 TS -22.4037 51.3823 main 336 336 _____P___PP___ -1 -24.2256 51.4752 99 -21.7500 51.3499 TC 35 -21.2356 51.3218 2 5 172
1934352S13053 1935 87 SI MM NOT_NAMED 1934-12-24 00:00:00 TS -22.6476 51.4222 main 341 341 _____P___OP___ -1 -24.4578 51.5168 99 -22.0000 51.4000 TC 35 -21.4850 51.3499 2 5 174
1934352S13053 1935 87 SI MM NOT_NAMED 1934-12-24 03:00:00 TS -22.8916 51.4481 main 351 351 _____P___PP___ -1 -24.6830 51.5586 99 -22.2500 51.4075 TC 35 -21.7419 51.3780 2 5 175
1934352S13053 1935 87 SI MM NOT_NAMED 1934-12-24 06:00:00 TS -23.1333 51.4667 reunion main 368 368 _____O___OO___ -1 -24.9000 51.6000 99 9.90000 -22.5000 51.4000 TC 35 -22.0000 51.4000 2 5 174
1934352S13053 1935 87 SI MM NOT_NAMED 1934-12-24 09:00:00 TS -23.3707 51.4812 main 381 381 _____P___PP___ -1 -25.1080 51.6402 99 -22.7500 51.4000 TC 35 -22.2541 51.4032 2 5 0
1934352S13053 1935 87 SI MM NOT_NAMED 1934-12-24 12:00:00 TS -23.6051 51.4932 main 385 385 _____P___OP___ -1 -25.3078 51.6794 99 -23.0000 51.4000 TC 35 -22.5075 51.4002 2 5 178
1934352S13053 1935 87 SI MM NOT_NAMED 1934-12-24 15:00:00 TS -23.8384 51.5023 main 389 389 _____P___PP___ -1 -25.5006 51.7175 99 -23.2575 51.3925 TC 35 -22.7572 51.3970 2 5 176
1934352S13053 1935 87 SI MM NOT_NAMED 1934-12-24 18:00:00 TS -24.1136 51.5290 main 394 394 _____P___OO___ -1 -25.6875 51.7549 99 -23.5000 51.4000 TC 35 -23.0000 51.4000 2 6 174
1934352S13053 1935 87 SI MM NOT_NAMED 1934-12-24 21:00:00 TS -24.3834 51.5702 main 411 411 _____P___PP___ -1 -25.8697 51.7916 99 -23.7100 51.4399 TC 35 -23.2338 51.4139 2 5 171
1934352S13053 1935 87 SI MM NOT_NAMED 1934-12-25 00:00:00 TS -24.6322 51.6137 main 418 418 _____P___OP___ -1 -26.0485 51.8280 99 -23.9000 51.5000 TC 35 -23.4600 51.4373 2 6 171
1934352S13053 1935 87 SI MM NOT_NAMED 1934-12-25 03:00:00 NR -24.9530 51.6655 main 439 439 _____P____P___ -1 -26.2248 51.8640 99 TC -23.6813 51.4670 2 5 172
1934352S13053 1935 87 SI MM NOT_NAMED 1934-12-25 06:00:00 NR -25.1500 51.7000 reunion main 441 _____O____O___ -1 -26.4000 51.9000 99 9.90000 -23.9000 51.5000 2 4 168

IBTrACS Databaseについて

本データベースは、米国NOAAが公開する1842年以降の世界の熱帯低気圧のベストトラックデータアーカイブInternational Best Track Archive for Climate Stewardship (IBTrACS)を、ウェブで閲覧しやすい形式に変換したものです。

最終更新日:2021-12-01